createdAt,value
2017-11-15T00:00:47.581Z,25.25
2017-11-15T00:03:15.165Z,23.90
2017-11-15T00:05:42.733Z,24.75
2017-11-15T00:08:10.459Z,24.95
2017-11-15T00:10:38.171Z,26.42
2017-11-15T00:13:05.745Z,24.85
2017-11-15T00:15:34.101Z,25.62
2017-11-15T00:18:01.661Z,26.10
2017-11-15T00:20:29.288Z,24.33
2017-11-15T00:22:56.859Z,25.17
2017-11-15T00:25:24.428Z,27.90
2017-11-15T00:27:52.152Z,28.17
2017-11-15T00:30:19.707Z,24.83
2017-11-15T00:32:47.304Z,28.42
2017-11-15T00:35:14.868Z,28.27
2017-11-15T00:37:42.433Z,26.37
2017-11-15T00:40:10.140Z,26.45
2017-11-15T00:42:37.708Z,27.00
2017-11-15T00:45:05.467Z,25.35
2017-11-15T00:47:33.021Z,26.55
2017-11-15T00:50:00.668Z,27.67
2017-11-15T00:52:28.292Z,24.95
2017-11-15T00:54:55.865Z,26.37
2017-11-15T00:57:24.258Z,25.88
2017-11-15T00:59:52.582Z,23.20
2017-11-15T01:02:20.173Z,24.58
2017-11-15T01:04:47.788Z,22.17
2017-11-15T01:07:15.349Z,19.90
2017-11-15T01:09:42.905Z,21.33
2017-11-15T01:12:10.480Z,24.40
2017-11-15T01:14:38.034Z,24.55
2017-11-15T01:17:05.695Z,25.08
2017-11-15T01:19:33.253Z,25.75
2017-11-15T01:22:00.865Z,26.15
2017-11-15T01:24:29.189Z,28.75
2017-11-15T01:26:56.777Z,26.30
2017-11-15T01:29:24.345Z,25.90
2017-11-15T01:31:52.699Z,23.95
2017-11-15T01:34:20.255Z,26.27
2017-11-15T01:36:47.983Z,24.77
2017-11-15T01:39:15.551Z,24.87
2017-11-15T01:41:43.125Z,25.17
2017-11-15T01:44:10.717Z,25.92
2017-11-15T01:46:39.195Z,25.85
2017-11-15T01:49:07.636Z,23.42
2017-11-15T01:51:35.212Z,24.60
2017-11-15T01:54:02.840Z,23.50
2017-11-15T01:56:30.412Z,24.27
2017-11-15T01:58:58.113Z,22.10
2017-11-15T02:01:26.540Z,23.12
2017-11-15T02:03:54.100Z,22.35
2017-11-15T02:06:21.766Z,23.70
2017-11-15T02:08:49.345Z,23.08
2017-11-15T02:11:16.944Z,25.98
2017-11-15T02:13:45.277Z,22.90
2017-11-15T02:16:12.838Z,23.02
2017-11-15T02:18:40.430Z,22.35
2017-11-15T02:21:08.773Z,25.17
2017-11-15T02:23:36.381Z,23.08
2017-11-15T02:26:03.936Z,24.95
2017-11-15T02:28:31.505Z,21.98
2017-11-15T02:30:59.172Z,22.45
2017-11-15T02:33:26.740Z,22.27
2017-11-15T02:35:54.336Z,25.65
2017-11-15T02:38:21.892Z,24.00
2017-11-15T02:40:49.675Z,23.05
2017-11-15T02:43:17.995Z,23.77
2017-11-15T02:45:45.556Z,22.45
2017-11-15T02:48:13.149Z,20.00
2017-11-15T02:50:40.720Z,24.42
2017-11-15T02:53:09.144Z,23.42
2017-11-15T02:55:36.706Z,25.02
2017-11-15T02:58:04.273Z,25.00
2017-11-15T03:00:31.866Z,23.00
2017-11-15T03:02:59.434Z,23.00
2017-11-15T03:05:27.796Z,21.58
2017-11-15T03:07:55.348Z,21.60
2017-11-15T03:10:23.057Z,20.25
2017-11-15T03:12:50.617Z,22.60
2017-11-15T03:15:18.198Z,23.35
2017-11-15T03:17:45.787Z,24.75
2017-11-15T03:20:13.356Z,22.35
2017-11-15T03:22:40.944Z,21.15
2017-11-15T03:25:08.652Z,20.90
2017-11-15T03:27:36.268Z,21.60
2017-11-15T03:30:03.830Z,20.27
2017-11-15T03:32:31.419Z,21.58
2017-11-15T03:34:58.991Z,20.55
2017-11-15T03:37:27.659Z,22.05
2017-11-15T03:39:55.232Z,21.70
2017-11-15T03:42:22.796Z,19.37
2017-11-15T03:44:50.392Z,20.10
2017-11-15T03:47:18.804Z,20.80
2017-11-15T03:49:46.517Z,22.55
2017-11-15T03:52:14.109Z,23.55
2017-11-15T03:54:41.717Z,23.27
2017-11-15T03:57:09.292Z,21.48
2017-11-15T03:59:36.897Z,21.85
2017-11-15T04:02:04.461Z,21.12
2017-11-15T04:04:32.025Z,21.05
2017-11-15T04:06:59.616Z,22.35
2017-11-15T04:09:27.167Z,19.45
2017-11-15T04:11:54.769Z,17.87
2017-11-15T04:14:22.336Z,20.30
2017-11-15T04:16:50.004Z,19.00
2017-11-15T04:19:17.573Z,20.17
2017-11-15T04:21:45.131Z,21.27
2017-11-15T04:24:12.761Z,21.85
2017-11-15T04:26:41.096Z,21.98
2017-11-15T04:29:09.609Z,19.62
2017-11-15T04:31:37.942Z,20.12
2017-11-15T04:34:05.548Z,19.62
2017-11-15T04:36:33.884Z,17.52
2017-11-15T04:39:01.456Z,19.05
2017-11-15T04:41:29.055Z,17.20
2017-11-15T04:43:56.625Z,16.73
2017-11-15T04:46:24.208Z,16.40
2017-11-15T04:48:51.784Z,21.05
2017-11-15T04:51:19.402Z,20.75
2017-11-15T04:53:46.983Z,19.80
2017-11-15T04:56:14.552Z,16.35
2017-11-15T04:58:42.154Z,15.15
2017-11-15T05:01:10.480Z,17.27
2017-11-15T05:03:38.076Z,17.67
2017-11-15T05:06:06.449Z,18.17
2017-11-15T05:08:34.169Z,20.48
2017-11-15T05:11:01.784Z,18.27
2017-11-15T05:13:30.111Z,18.27
2017-11-15T05:15:57.708Z,17.70
2017-11-15T05:18:26.129Z,17.35
2017-11-15T05:20:53.786Z,16.25
2017-11-15T05:23:21.356Z,15.40
2017-11-15T05:25:48.954Z,16.48
2017-11-15T05:28:16.565Z,15.00
2017-11-15T05:30:44.161Z,14.65
2017-11-15T05:33:11.786Z,14.65
2017-11-15T05:35:39.352Z,15.55
2017-11-15T05:38:06.960Z,16.30
2017-11-15T05:40:35.336Z,16.00
2017-11-15T05:43:03.037Z,14.95
2017-11-15T05:45:30.642Z,17.40
2017-11-15T05:47:58.221Z,15.75
2017-11-15T05:50:26.599Z,15.13
2017-11-15T05:52:54.944Z,17.42
2017-11-15T05:55:22.567Z,14.00
2017-11-15T05:57:50.157Z,13.93
2017-11-15T06:00:17.730Z,15.73
2017-11-15T06:02:45.362Z,17.87
2017-11-15T06:05:12.945Z,15.15
2017-11-15T06:07:40.516Z,15.00
2017-11-15T06:10:08.172Z,16.62
2017-11-15T06:12:35.768Z,14.95
2017-11-15T06:15:03.400Z,14.90
2017-11-15T06:17:31.024Z,15.00
2017-11-15T06:19:59.421Z,14.95
2017-11-15T06:22:27.132Z,15.45
2017-11-15T06:24:54.661Z,16.42
2017-11-15T06:27:23.064Z,15.68
2017-11-15T06:29:50.748Z,17.30
2017-11-15T06:32:18.287Z,17.52
2017-11-15T06:34:45.956Z,17.42
2017-11-15T06:37:13.569Z,18.37
2017-11-15T06:39:41.876Z,18.87
2017-11-15T06:42:09.479Z,17.90
2017-11-15T06:44:37.077Z,17.40
2017-11-15T06:47:04.801Z,16.90
2017-11-15T06:49:32.426Z,15.90
2017-11-15T06:51:59.997Z,14.00
2017-11-15T06:54:27.577Z,14.80
2017-11-15T06:56:55.185Z,15.27
2017-11-15T06:59:23.606Z,14.00
2017-11-15T07:01:51.240Z,14.50
2017-11-15T07:04:18.839Z,14.52
2017-11-15T07:06:46.416Z,13.85
2017-11-15T07:09:14.013Z,14.55
2017-11-15T07:11:41.656Z,14.35
2017-11-15T07:14:10.019Z,14.75
2017-11-15T07:16:38.368Z,13.40
2017-11-15T07:19:05.979Z,14.90
2017-11-15T07:21:33.552Z,13.90
2017-11-15T07:24:01.157Z,15.27
2017-11-15T07:26:28.729Z,16.40
2017-11-15T07:28:56.324Z,16.58
2017-11-15T07:31:23.912Z,16.25
2017-11-15T07:33:51.520Z,17.37
2017-11-15T07:36:19.990Z,18.15
2017-11-15T07:38:48.332Z,17.80
2017-11-15T07:41:15.941Z,17.10
2017-11-15T07:43:44.316Z,17.45
2017-11-15T07:46:12.650Z,15.23
2017-11-15T07:48:40.304Z,15.13
2017-11-15T07:51:08.001Z,14.98
2017-11-15T07:53:36.340Z,14.85
2017-11-15T07:56:04.053Z,15.15
2017-11-15T07:58:31.636Z,14.15
2017-11-15T08:00:59.239Z,14.70
2017-11-15T08:03:26.828Z,14.90
2017-11-15T08:05:55.251Z,14.75
2017-11-15T08:08:22.833Z,13.80
2017-11-15T08:10:50.471Z,15.63
2017-11-15T08:13:18.053Z,15.27
2017-11-15T08:15:45.766Z,15.80
2017-11-15T08:18:13.329Z,14.73
2017-11-15T08:20:40.939Z,14.15
2017-11-15T08:23:08.545Z,12.43
2017-11-15T08:25:36.210Z,13.25
2017-11-15T08:28:03.898Z,14.05
2017-11-15T08:30:31.588Z,14.50
2017-11-15T08:32:59.205Z,13.30
2017-11-15T08:35:26.815Z,13.55
2017-11-15T08:37:55.169Z,13.10
2017-11-15T08:40:22.773Z,14.82
2017-11-15T08:42:50.341Z,13.32
2017-11-15T08:45:18.045Z,12.48
2017-11-15T08:47:45.613Z,11.48
2017-11-15T08:50:13.208Z,11.73
2017-11-15T08:52:40.768Z,11.43
2017-11-15T08:55:08.347Z,13.25
2017-11-15T08:57:35.922Z,12.40
2017-11-15T09:00:03.869Z,11.43
2017-11-15T09:02:31.732Z,11.43
2017-11-15T09:04:59.388Z,10.85
2017-11-15T09:07:26.984Z,12.98
2017-11-15T09:09:54.569Z,11.02
2017-11-15T09:12:22.909Z,10.95
2017-11-15T09:14:50.512Z,10.40
2017-11-15T09:17:18.845Z,9.70
2017-11-15T09:19:46.430Z,11.82
2017-11-15T09:22:14.099Z,10.68
2017-11-15T09:24:42.456Z,11.60
2017-11-15T09:27:10.056Z,10.93
2017-11-15T09:29:37.670Z,11.12
2017-11-15T09:32:05.239Z,3.33
2017-11-15T09:34:32.802Z,11.20
2017-11-15T09:37:00.404Z,12.93
2017-11-15T09:39:28.001Z,12.40
2017-11-15T09:41:55.556Z,11.57
2017-11-15T09:44:23.168Z,12.48
2017-11-15T09:46:50.749Z,11.05
2017-11-15T09:49:18.407Z,10.50
2017-11-15T09:51:46.001Z,14.98
2017-11-15T09:54:13.568Z,9.52
2017-11-15T09:56:41.148Z,14.50
2017-11-15T09:59:09.552Z,16.25
2017-11-15T10:01:37.125Z,14.52
2017-11-15T10:04:04.749Z,13.45
2017-11-15T10:06:33.081Z,13.07
2017-11-15T10:09:00.657Z,13.83
2017-11-15T10:11:28.272Z,12.97
2017-11-15T10:13:55.872Z,12.87
2017-11-15T10:16:23.475Z,12.93
2017-11-15T10:18:51.057Z,11.70
2017-11-15T10:21:18.621Z,11.30
2017-11-15T10:23:46.357Z,13.30
2017-11-15T10:26:13.948Z,13.47
2017-11-15T10:28:41.519Z,12.10
2017-11-15T10:31:09.129Z,13.47
2017-11-15T10:33:36.789Z,14.77
2017-11-15T10:36:04.476Z,14.03
2017-11-15T10:38:32.075Z,13.37
2017-11-15T10:40:59.646Z,13.57
2017-11-15T10:43:27.976Z,14.77
2017-11-15T10:45:55.584Z,14.53
2017-11-15T10:48:23.984Z,14.90
2017-11-15T10:50:51.669Z,14.77
2017-11-15T10:53:19.238Z,13.33
2017-11-15T10:55:47.009Z,13.70
2017-11-15T10:58:14.568Z,15.00
2017-11-15T11:00:42.164Z,13.93
2017-11-15T11:03:10.522Z,15.07
2017-11-15T11:05:38.200Z,15.70
2017-11-15T11:08:06.583Z,16.13
2017-11-15T11:10:34.928Z,15.67
2017-11-15T11:13:02.505Z,15.13
2017-11-15T11:15:30.101Z,16.57
2017-11-15T11:17:57.772Z,15.87
2017-11-15T11:20:25.324Z,15.00
2017-11-15T11:22:52.992Z,17.90
2017-11-15T11:25:20.572Z,15.47
2017-11-15T11:27:48.124Z,16.87
2017-11-15T11:30:15.799Z,15.30
2017-11-15T11:32:44.350Z,13.23
2017-11-15T11:35:11.912Z,14.70
2017-11-15T11:37:39.660Z,15.60
2017-11-15T11:40:07.263Z,14.97
2017-11-15T11:42:34.872Z,15.50
2017-11-15T11:45:02.558Z,15.80
2017-11-15T11:47:30.135Z,15.50
2017-11-15T11:49:57.865Z,15.27
2017-11-15T11:52:25.429Z,17.07
2017-11-15T11:54:52.988Z,19.33
2017-11-15T11:57:20.572Z,17.00
2017-11-15T11:59:48.156Z,16.73
2017-11-15T12:02:15.870Z,13.70
2017-11-15T12:04:43.528Z,16.37
2017-11-15T12:07:11.118Z,16.20
2017-11-15T12:09:38.719Z,15.13
2017-11-15T12:12:07.189Z,15.10
2017-11-15T12:14:35.557Z,15.77
2017-11-15T12:17:03.134Z,15.20
2017-11-15T12:19:31.651Z,15.73
2017-11-15T12:21:59.353Z,14.90
2017-11-15T12:24:27.077Z,14.40
2017-11-15T12:26:54.636Z,16.50
2017-11-15T12:29:22.228Z,15.20
2017-11-15T12:31:49.833Z,15.30
2017-11-15T12:34:17.436Z,15.67
2017-11-15T12:36:45.059Z,16.07
2017-11-15T12:39:12.749Z,17.80
2017-11-15T12:41:40.323Z,15.57
2017-11-15T12:44:09.428Z,17.47
2017-11-15T12:46:36.995Z,19.07
2017-11-15T12:49:05.360Z,18.13
2017-11-15T12:51:32.960Z,17.50
2017-11-15T12:54:00.570Z,16.30
2017-11-15T12:56:28.168Z,18.63
2017-11-15T12:58:55.848Z,17.30
2017-11-15T13:01:23.452Z,14.30
2017-11-15T13:03:51.016Z,14.73
2017-11-15T13:06:18.596Z,15.47
2017-11-15T13:08:46.956Z,14.20
2017-11-15T13:11:14.716Z,13.07
2017-11-15T13:13:42.333Z,13.43
2017-11-15T13:16:09.929Z,13.23
2017-11-15T13:18:37.540Z,11.87
2017-11-15T13:21:05.122Z,13.00
2017-11-15T13:23:32.681Z,14.20
2017-11-15T13:26:00.276Z,14.00
2017-11-15T13:28:28.604Z,14.63
2017-11-15T13:30:56.216Z,15.10
2017-11-15T13:33:24.544Z,15.27
2017-11-15T13:35:52.186Z,14.67
2017-11-15T13:38:19.847Z,14.97
2017-11-15T13:40:47.412Z,16.70
2017-11-15T13:43:14.984Z,15.30
2017-11-15T13:45:42.589Z,12.60
2017-11-15T13:48:10.929Z,12.63
2017-11-15T13:50:38.548Z,12.67
2017-11-15T13:53:06.124Z,14.10
2017-11-15T13:55:33.781Z,13.97
2017-11-15T13:58:01.368Z,14.17
2017-11-15T14:00:28.932Z,15.37
2017-11-15T14:02:56.533Z,14.47
2017-11-15T14:05:24.093Z,15.40
2017-11-15T14:07:51.708Z,16.13
2017-11-15T14:10:19.288Z,15.47
2017-11-15T14:12:47.673Z,14.93
2017-11-15T14:15:16.042Z,13.80
2017-11-15T14:17:43.704Z,15.47
2017-11-15T14:20:12.130Z,13.40
2017-11-15T14:22:39.689Z,12.90
2017-11-15T14:25:07.375Z,13.03
2017-11-15T14:27:34.940Z,12.97
2017-11-15T14:30:02.536Z,12.27
2017-11-15T14:32:31.036Z,13.00
2017-11-15T14:34:58.604Z,13.73
2017-11-15T14:37:26.204Z,13.43
2017-11-15T14:39:53.788Z,12.67
2017-11-15T14:42:22.220Z,12.50
2017-11-15T14:44:49.823Z,13.37
2017-11-15T14:47:18.229Z,13.27
2017-11-15T14:49:45.819Z,15.03
2017-11-15T14:52:13.448Z,16.53
2017-11-15T14:54:41.108Z,12.97
2017-11-15T14:57:08.824Z,17.03
2017-11-15T14:59:36.494Z,15.20
2017-11-15T15:02:04.853Z,18.30
2017-11-15T15:04:32.476Z,15.93
2017-11-15T15:07:00.068Z,13.50
2017-11-15T15:09:27.628Z,14.37
2017-11-15T15:11:55.217Z,13.80
2017-11-15T15:14:23.577Z,13.20
2017-11-15T15:16:51.913Z,14.10
2017-11-15T15:19:19.510Z,12.90
2017-11-15T15:21:47.077Z,13.83
2017-11-15T15:24:15.597Z,13.10
2017-11-15T15:26:43.281Z,11.93
2017-11-15T15:29:10.917Z,12.70
2017-11-15T15:31:38.512Z,13.40
2017-11-15T15:34:06.067Z,12.70
2017-11-15T15:36:33.661Z,15.93
2017-11-15T15:39:02.067Z,15.57
2017-11-15T15:41:29.693Z,16.30
2017-11-15T15:43:58.037Z,19.83
2017-11-15T15:46:25.658Z,17.67
2017-11-15T15:48:53.321Z,14.98
2017-11-15T15:51:20.916Z,15.47
2017-11-15T15:53:48.627Z,21.03
2017-11-15T15:56:16.189Z,20.10
2017-11-15T15:58:43.864Z,24.30
2017-11-15T16:01:11.467Z,17.33
2017-11-15T16:03:39.050Z,17.33
2017-11-15T16:06:07.466Z,16.37
2017-11-15T16:08:35.121Z,15.00
2017-11-15T16:11:02.784Z,14.33
2017-11-15T16:13:30.394Z,13.67
2017-11-15T16:15:58.000Z,14.17
2017-11-15T16:18:25.708Z,15.50
2017-11-15T16:20:53.276Z,15.20
2017-11-15T16:23:21.660Z,15.75
2017-11-15T16:25:49.997Z,15.03
2017-11-15T16:28:17.578Z,16.13
2017-11-15T16:30:45.212Z,15.65
2017-11-15T16:33:12.799Z,16.15
2017-11-15T16:35:40.380Z,16.43
2017-11-15T16:38:07.982Z,17.80
2017-11-15T16:40:35.605Z,16.37
2017-11-15T16:43:04.748Z,16.48
2017-11-15T16:45:32.388Z,16.85
2017-11-15T16:48:00.016Z,17.40
2017-11-15T16:50:27.604Z,16.92
2017-11-15T16:52:55.168Z,18.13
2017-11-15T16:55:22.785Z,17.95
2017-11-15T16:57:51.124Z,17.62
2017-11-15T17:00:18.817Z,17.98
2017-11-15T17:02:47.249Z,17.37
2017-11-15T17:05:14.830Z,17.50
2017-11-15T17:07:42.432Z,18.03
2017-11-15T17:10:10.002Z,17.02
2017-11-15T17:12:37.613Z,17.08
2017-11-15T17:15:05.215Z,17.55
2017-11-15T17:17:32.823Z,18.52
2017-11-15T17:20:00.452Z,19.10
2017-11-15T17:22:28.120Z,19.02
2017-11-15T17:24:55.780Z,19.10
2017-11-15T17:27:23.363Z,19.00
2017-11-15T17:29:50.968Z,21.83
2017-11-15T17:32:18.561Z,21.30
2017-11-15T17:34:46.187Z,23.10
2017-11-15T17:37:13.785Z,20.20
2017-11-15T17:39:41.426Z,20.30
2017-11-15T17:42:09.054Z,19.23
2017-11-15T17:44:37.473Z,19.25
2017-11-15T17:47:05.041Z,20.23
2017-11-15T17:49:32.644Z,18.15
2017-11-15T17:52:00.994Z,20.50
2017-11-15T17:54:28.623Z,16.83
2017-11-15T17:56:56.206Z,19.17
2017-11-15T17:59:23.795Z,19.45
2017-11-15T18:01:52.176Z,21.20
2017-11-15T18:04:20.536Z,19.20
2017-11-15T18:06:48.165Z,19.98
2017-11-15T18:09:15.794Z,21.65
2017-11-15T18:11:43.480Z,25.42
2017-11-15T18:14:11.169Z,25.55
2017-11-15T18:16:40.269Z,24.95
2017-11-15T18:19:07.864Z,24.48
2017-11-15T18:21:35.439Z,27.10
2017-11-15T18:24:03.045Z,25.40
2017-11-15T18:26:30.620Z,25.27
2017-11-15T18:28:59.031Z,26.33
2017-11-15T18:31:26.677Z,25.37
2017-11-15T18:33:54.567Z,27.62
2017-11-15T18:36:22.539Z,29.02
2017-11-15T18:38:50.605Z,25.27
2017-11-15T18:41:18.673Z,30.45
2017-11-15T18:43:46.644Z,27.52
2017-11-15T18:46:14.712Z,27.85
2017-11-15T18:48:42.784Z,28.92
2017-11-15T18:51:10.826Z,25.35
2017-11-15T18:53:38.830Z,25.17
2017-11-15T18:56:07.608Z,25.02
2017-11-15T18:58:35.783Z,25.37
2017-11-15T19:01:03.851Z,25.90
2017-11-15T19:03:31.824Z,27.65
2017-11-15T19:05:59.889Z,26.70
2017-11-15T19:08:27.959Z,25.73
2017-11-15T19:10:55.926Z,28.40
2017-11-15T19:13:24.098Z,28.05
2017-11-15T19:15:52.174Z,29.12
2017-11-15T19:18:20.242Z,28.65
2017-11-15T19:20:48.208Z,26.35
2017-11-15T19:23:16.306Z,24.10
2017-11-15T19:25:44.347Z,19.58
2017-11-15T19:28:12.422Z,16.27
2017-11-15T19:30:40.599Z,21.95
2017-11-15T19:33:08.662Z,18.25
2017-11-15T19:35:36.731Z,18.75
2017-11-15T19:38:04.698Z,19.52
2017-11-15T19:40:32.769Z,19.52
2017-11-15T19:43:00.737Z,17.95
2017-11-15T19:45:28.705Z,18.30
2017-11-15T19:47:56.586Z,18.83
2017-11-15T19:50:25.357Z,16.90
2017-11-15T19:52:53.327Z,16.77
2017-11-15T19:55:21.296Z,16.87
2017-11-15T19:57:49.364Z,19.60
2017-11-15T20:00:17.434Z,18.00
2017-11-15T20:02:45.614Z,31.00
2017-11-15T20:05:14.494Z,20.92
2017-11-15T20:07:42.566Z,20.50
2017-11-15T20:10:10.614Z,19.92
2017-11-15T20:12:38.818Z,15.70
2017-11-15T20:15:06.880Z,14.87
2017-11-15T20:17:35.567Z,16.17
2017-11-15T20:20:03.642Z,15.15
2017-11-15T20:22:31.703Z,15.32
2017-11-15T20:24:59.773Z,15.38
2017-11-15T20:27:27.742Z,15.50
2017-11-15T20:29:55.619Z,16.90
2017-11-15T20:32:23.576Z,16.15
2017-11-15T20:34:51.355Z,16.60
2017-11-15T20:37:18.980Z,16.85
2017-11-15T20:39:46.658Z,17.83
2017-11-15T20:42:14.319Z,16.92
2017-11-15T20:44:41.935Z,17.02
2017-11-15T20:47:09.601Z,16.10
2017-11-15T20:49:37.956Z,17.37
2017-11-15T20:52:05.645Z,17.25
2017-11-15T20:54:34.060Z,18.23
2017-11-15T20:57:01.643Z,17.17
2017-11-15T20:59:29.265Z,26.52
2017-11-15T21:01:56.865Z,20.70
2017-11-15T21:04:24.457Z,16.77
2017-11-15T21:06:52.975Z,15.00
2017-11-15T21:09:20.557Z,18.37
2017-11-15T21:11:48.192Z,17.45
2017-11-15T21:14:15.809Z,18.27
2017-11-15T21:16:43.406Z,17.85
2017-11-15T21:19:11.089Z,18.60
2017-11-15T21:21:38.760Z,19.83
2017-11-15T21:24:06.392Z,21.15
2017-11-15T21:26:34.007Z,22.75
2017-11-15T21:29:01.592Z,27.55
2017-11-15T21:31:29.996Z,19.42
2017-11-15T21:33:57.569Z,21.75
2017-11-15T21:36:25.270Z,24.42
2017-11-15T21:38:53.606Z,19.95
2017-11-15T21:41:21.225Z,21.02
2017-11-15T21:43:49.583Z,19.85
2017-11-15T21:46:17.154Z,21.90
2017-11-15T21:48:45.524Z,19.75
2017-11-15T21:51:13.872Z,17.95
2017-11-15T21:53:41.558Z,17.50
2017-11-15T21:56:09.904Z,22.15
2017-11-15T21:58:37.531Z,19.80
2017-11-15T22:01:05.122Z,20.15
2017-11-15T22:03:32.710Z,19.85
2017-11-15T22:06:01.083Z,17.00
2017-11-15T22:08:28.669Z,17.73
2017-11-15T22:10:56.228Z,18.85
2017-11-15T22:13:23.860Z,18.17
2017-11-15T22:15:51.567Z,16.98
2017-11-15T22:18:19.152Z,17.85
2017-11-15T22:20:46.749Z,16.87
2017-11-15T22:23:15.167Z,22.13
2017-11-15T22:25:42.836Z,18.73
2017-11-15T22:28:10.590Z,21.55
2017-11-15T22:30:38.156Z,21.02
2017-11-15T22:33:05.752Z,23.52
2017-11-15T22:35:33.349Z,25.52
2017-11-15T22:38:00.920Z,21.77
2017-11-15T22:40:28.495Z,21.80
2017-11-15T22:42:56.096Z,19.10
2017-11-15T22:45:23.657Z,20.10
2017-11-15T22:47:51.257Z,19.37
2017-11-15T22:50:18.919Z,18.48
2017-11-15T22:52:46.490Z,18.60
2017-11-15T22:55:14.082Z,20.40
2017-11-15T22:57:42.593Z,20.05
2017-11-15T23:00:11.020Z,19.50
2017-11-15T23:02:38.608Z,20.70
2017-11-15T23:05:06.189Z,22.67
2017-11-15T23:07:34.569Z,21.08
2017-11-15T23:10:02.143Z,21.52
2017-11-15T23:12:29.701Z,21.87
2017-11-15T23:14:57.276Z,21.62
2017-11-15T23:17:24.837Z,21.80
2017-11-15T23:19:52.432Z,21.85
2017-11-15T23:22:19.989Z,22.90
2017-11-15T23:24:47.605Z,22.95
2017-11-15T23:27:15.172Z,23.83
2017-11-15T23:29:42.732Z,25.65
2017-11-15T23:32:10.342Z,24.33
2017-11-15T23:34:38.692Z,23.67
2017-11-15T23:37:06.252Z,21.17
2017-11-15T23:39:33.976Z,25.27
2017-11-15T23:42:01.545Z,22.92
2017-11-15T23:44:29.264Z,23.02
2017-11-15T23:46:57.675Z,22.85
2017-11-15T23:49:25.243Z,23.75
2017-11-15T23:51:52.847Z,23.48
2017-11-15T23:54:20.584Z,21.42
2017-11-15T23:56:48.189Z,22.80
2017-11-15T23:59:16.528Z,23.70
